createdAt,value
2019-01-31T00:02:18.468Z,73.37
2019-01-31T00:05:32.866Z,67.70
2019-01-31T00:08:45.496Z,71.20
2019-01-31T00:11:36.421Z,69.10
2019-01-31T00:14:43.995Z,72.60
2019-01-31T00:18:01.319Z,69.90
2019-01-31T00:21:19.985Z,67.70
2019-01-31T00:24:31.362Z,69.63
2019-01-31T00:27:44.817Z,74.87
2019-01-31T00:30:57.145Z,74.47
2019-01-31T00:33:57.745Z,74.00
2019-01-31T00:37:12.920Z,73.17
2019-01-31T00:40:23.093Z,73.23
2019-01-31T00:43:15.833Z,75.17
2019-01-31T00:46:16.599Z,76.13
2019-01-31T00:49:18.181Z,74.97
2019-01-31T00:52:20.171Z,74.93
2019-01-31T00:55:48.480Z,71.40
2019-01-31T00:59:05.594Z,71.77
2019-01-31T01:02:33.876Z,76.90
2019-01-31T01:05:58.455Z,68.93
2019-01-31T01:09:10.676Z,73.73
2019-01-31T01:12:33.276Z,73.90
2019-01-31T01:15:45.933Z,72.07
2019-01-31T01:18:36.415Z,66.43
2019-01-31T01:21:53.240Z,71.87
2019-01-31T01:25:01.437Z,76.33
2019-01-31T01:28:01.926Z,79.87
2019-01-31T01:31:14.522Z,78.03
2019-01-31T01:34:19.451Z,74.20
2019-01-31T01:37:00.632Z,67.03
2019-01-31T01:39:58.881Z,71.03
2019-01-31T01:43:00.437Z,70.27
2019-01-31T01:46:15.876Z,70.70
2019-01-31T01:49:05.962Z,60.37
2019-01-31T01:51:51.934Z,73.27
2019-01-31T01:55:20.710Z,66.40
2019-01-31T01:58:29.594Z,66.57
2019-01-31T02:01:39.103Z,66.47
2019-01-31T02:04:46.125Z,64.63
2019-01-31T02:07:43.224Z,63.27
2019-01-31T02:11:05.654Z,61.60
2019-01-31T02:14:19.099Z,62.17
2019-01-31T02:17:19.928Z,58.43
2019-01-31T02:20:30.252Z,59.07
2019-01-31T02:23:26.255Z,62.63
2019-01-31T02:26:48.635Z,63.53
2019-01-31T02:29:49.435Z,57.60
2019-01-31T02:32:51.779Z,62.67
2019-01-31T02:36:09.005Z,61.70
2019-01-31T02:39:08.962Z,58.60
2019-01-31T02:42:24.581Z,60.43
2019-01-31T02:45:52.878Z,61.73
2019-01-31T02:48:58.091Z,58.33
2019-01-31T02:52:02.004Z,60.00
2019-01-31T02:55:15.924Z,60.00
2019-01-31T02:58:17.920Z,60.00
2019-01-31T03:01:19.084Z,61.60
2019-01-31T03:04:31.478Z,62.90
2019-01-31T03:07:48.081Z,64.93
2019-01-31T03:10:53.749Z,61.80
2019-01-31T03:13:49.336Z,63.83
2019-01-31T03:16:53.600Z,65.87
2019-01-31T03:20:14.005Z,61.43
2019-01-31T03:23:34.994Z,63.10
2019-01-31T03:26:46.988Z,62.60
2019-01-31T03:30:05.913Z,60.13
2019-01-31T03:33:09.955Z,68.90
2019-01-31T03:36:27.566Z,62.93
2019-01-31T03:39:17.753Z,65.97
2019-01-31T03:42:33.357Z,63.97
2019-01-31T03:45:24.852Z,70.57
2019-01-31T03:48:19.092Z,70.43
2019-01-31T03:51:18.155Z,73.13
2019-01-31T03:54:42.948Z,69.43
2019-01-31T03:57:39.988Z,74.00
2019-01-31T04:01:08.277Z,70.50
2019-01-31T04:03:51.485Z,65.43
2019-01-31T04:06:33.911Z,71.60
2019-01-31T04:09:10.607Z,72.20
2019-01-31T04:11:41.231Z,74.43
2019-01-31T04:14:11.949Z,73.17
2019-01-31T04:16:42.647Z,74.93
2019-01-31T04:19:13.385Z,73.00
2019-01-31T04:21:44.147Z,75.33
2019-01-31T04:24:14.746Z,75.70
2019-01-31T04:26:45.361Z,69.67
2019-01-31T04:29:16.098Z,77.70
2019-01-31T04:31:46.786Z,70.67
2019-01-31T04:34:17.913Z,71.83
2019-01-31T04:36:48.553Z,71.70
2019-01-31T04:39:19.201Z,68.73
2019-01-31T04:41:50.293Z,71.07
2019-01-31T04:44:21.033Z,74.97
2019-01-31T04:46:51.791Z,73.23
2019-01-31T04:49:22.412Z,72.73
2019-01-31T04:51:53.016Z,76.77
2019-01-31T04:54:23.676Z,71.87
2019-01-31T04:56:54.397Z,77.03
2019-01-31T04:59:25.179Z,76.33
2019-01-31T05:01:55.955Z,74.13
2019-01-31T05:04:26.624Z,73.77
2019-01-31T05:06:57.201Z,78.00
2019-01-31T05:09:27.911Z,74.13
2019-01-31T05:11:58.596Z,77.17
2019-01-31T05:14:29.223Z,73.10
2019-01-31T05:16:59.927Z,77.30
2019-01-31T05:19:30.840Z,76.47
2019-01-31T05:22:01.427Z,75.30
2019-01-31T05:24:31.994Z,71.33
2019-01-31T05:27:04.493Z,72.40
2019-01-31T05:29:35.022Z,70.50
2019-01-31T05:32:05.747Z,70.83
2019-01-31T05:34:36.375Z,67.00
2019-01-31T05:37:06.983Z,58.67
2019-01-31T05:39:37.593Z,75.90
2019-01-31T05:42:08.721Z,69.60
2019-01-31T05:44:39.386Z,68.10
2019-01-31T05:47:09.922Z,68.83
2019-01-31T05:49:40.780Z,67.77
2019-01-31T05:52:11.500Z,65.30
2019-01-31T05:54:42.088Z,67.70
2019-01-31T05:57:12.720Z,44.50
2019-01-31T05:59:43.425Z,62.13
2019-01-31T06:02:14.013Z,64.03
2019-01-31T06:04:44.866Z,64.10
2019-01-31T06:07:15.623Z,53.73
2019-01-31T06:09:46.211Z,48.50
2019-01-31T06:12:16.810Z,59.53
2019-01-31T06:14:47.434Z,48.77
2019-01-31T06:17:18.391Z,60.03
2019-01-31T06:19:49.203Z,63.80
2019-01-31T06:22:19.803Z,52.27
2019-01-31T06:24:50.486Z,66.77
2019-01-31T06:27:21.034Z,67.93
2019-01-31T06:29:51.652Z,65.07
2019-01-31T06:32:22.285Z,66.20
2019-01-31T06:34:52.662Z,66.70
2019-01-31T06:37:23.062Z,59.73
2019-01-31T06:39:53.661Z,65.07
2019-01-31T06:42:24.192Z,64.47
2019-01-31T06:44:54.616Z,65.53
2019-01-31T06:47:25.159Z,67.70
2019-01-31T06:49:55.677Z,66.63
2019-01-31T06:52:26.174Z,60.77
2019-01-31T06:54:56.672Z,59.63
2019-01-31T06:57:27.257Z,65.57
2019-01-31T06:59:58.172Z,68.20
2019-01-31T07:02:28.739Z,65.73
2019-01-31T07:04:59.588Z,70.20
2019-01-31T07:07:30.408Z,69.67
2019-01-31T07:10:01.072Z,62.30
2019-01-31T07:12:31.924Z,55.53
2019-01-31T07:15:02.434Z,63.13
2019-01-31T07:17:33.177Z,63.73
2019-01-31T07:20:03.830Z,64.00
2019-01-31T07:22:34.492Z,65.47
2019-01-31T07:25:05.975Z,61.60
2019-01-31T07:27:36.615Z,61.83
2019-01-31T07:30:09.828Z,60.30
2019-01-31T07:32:41.654Z,60.13
2019-01-31T07:35:14.401Z,52.70
2019-01-31T07:37:45.005Z,54.33
2019-01-31T07:40:18.524Z,51.77
2019-01-31T07:42:48.970Z,50.90
2019-01-31T07:45:26.637Z,51.50
2019-01-31T07:47:57.210Z,51.37
2019-01-31T07:50:27.841Z,48.27
2019-01-31T07:52:58.701Z,51.23
2019-01-31T07:55:29.208Z,48.30
2019-01-31T07:58:09.552Z,50.60
2019-01-31T08:00:40.169Z,51.33
2019-01-31T08:03:10.815Z,48.83
2019-01-31T08:05:41.436Z,52.40
2019-01-31T08:08:12.024Z,51.13
2019-01-31T08:10:44.464Z,53.50
2019-01-31T08:13:15.005Z,52.40
2019-01-31T08:15:45.573Z,49.77
2019-01-31T08:18:16.228Z,51.73
2019-01-31T08:20:46.908Z,52.20
2019-01-31T08:23:17.490Z,53.83
2019-01-31T08:25:48.100Z,51.73
2019-01-31T08:28:18.768Z,53.53
2019-01-31T08:30:49.284Z,54.13
2019-01-31T08:33:19.885Z,53.87
2019-01-31T08:35:50.565Z,52.27
2019-01-31T08:38:21.420Z,51.50
2019-01-31T08:40:52.071Z,55.00
2019-01-31T08:43:22.736Z,55.13
2019-01-31T08:45:53.318Z,56.07
2019-01-31T08:48:24.464Z,55.23
2019-01-31T08:50:55.074Z,58.10
2019-01-31T08:53:25.509Z,54.07
2019-01-31T08:55:56.350Z,58.23
2019-01-31T08:58:26.854Z,55.87
2019-01-31T09:00:57.734Z,54.73
2019-01-31T09:03:28.350Z,56.10
2019-01-31T09:05:58.890Z,57.17
2019-01-31T09:08:29.430Z,56.17
2019-01-31T09:10:59.978Z,55.47
2019-01-31T09:13:31.516Z,53.90
2019-01-31T09:16:21.032Z,55.00
2019-01-31T09:18:51.532Z,54.37
2019-01-31T09:22:12.879Z,52.97
2019-01-31T09:25:24.186Z,49.13
2019-01-31T09:28:36.357Z,48.30
2019-01-31T09:31:45.624Z,48.63
2019-01-31T09:34:48.531Z,42.80
2019-01-31T09:38:07.447Z,47.13
2019-01-31T09:41:08.550Z,43.60
2019-01-31T09:44:33.871Z,45.87
2019-01-31T09:47:44.891Z,44.70
2019-01-31T09:50:57.927Z,44.93
2019-01-31T09:54:09.391Z,46.10
2019-01-31T09:57:30.168Z,48.03
2019-01-31T10:00:29.327Z,45.10
2019-01-31T10:03:57.180Z,46.27
2019-01-31T10:07:03.024Z,46.47
2019-01-31T10:09:50.316Z,45.23
2019-01-31T10:13:11.569Z,44.87
2019-01-31T10:16:24.406Z,45.43
2019-01-31T10:19:38.740Z,44.87
2019-01-31T10:22:56.974Z,45.40
2019-01-31T10:26:06.366Z,45.10
2019-01-31T10:29:19.320Z,41.87
2019-01-31T10:32:32.262Z,43.20
2019-01-31T10:35:44.064Z,39.50
2019-01-31T10:38:48.477Z,39.40
2019-01-31T10:42:10.548Z,41.80
2019-01-31T10:45:22.812Z,43.27
2019-01-31T10:48:28.049Z,40.10
2019-01-31T10:51:54.716Z,40.40
2019-01-31T10:55:22.575Z,41.00
2019-01-31T10:58:38.156Z,42.50
2019-01-31T11:02:04.626Z,40.97
2019-01-31T11:05:18.386Z,40.67
2019-01-31T11:08:46.276Z,41.47
2019-01-31T11:11:59.517Z,39.00
2019-01-31T11:15:03.333Z,38.67
2019-01-31T11:18:25.697Z,38.77
2019-01-31T11:21:53.551Z,37.47
2019-01-31T11:25:08.006Z,36.83
2019-01-31T11:28:08.845Z,36.97
2019-01-31T11:31:01.136Z,36.47
2019-01-31T11:34:33.074Z,35.63
2019-01-31T11:37:58.815Z,33.57
2019-01-31T11:41:26.685Z,33.83
2019-01-31T11:44:52.008Z,35.40
2019-01-31T11:48:02.254Z,35.97
2019-01-31T11:51:20.650Z,34.67
2019-01-31T11:54:08.794Z,34.10
2019-01-31T11:57:30.678Z,32.90
2019-01-31T12:00:01.306Z,35.73
2019-01-31T12:02:32.008Z,32.53
2019-01-31T12:05:02.487Z,29.40
2019-01-31T12:07:33.159Z,29.00
2019-01-31T12:10:03.875Z,31.87
2019-01-31T12:12:34.520Z,33.70
2019-01-31T12:15:07.045Z,29.60
2019-01-31T12:17:38.036Z,27.00
2019-01-31T12:20:10.064Z,25.77
2019-01-31T12:22:40.870Z,24.40
2019-01-31T12:25:11.931Z,25.45
2019-01-31T12:27:42.503Z,23.40
2019-01-31T12:30:19.320Z,23.07
2019-01-31T12:32:49.851Z,29.00
2019-01-31T12:35:20.433Z,28.27
2019-01-31T12:37:51.247Z,25.43
2019-01-31T12:40:21.906Z,23.87
2019-01-31T12:42:52.690Z,22.77
2019-01-31T12:45:23.626Z,18.23
2019-01-31T12:47:54.157Z,17.27
2019-01-31T12:50:28.123Z,16.60
2019-01-31T12:52:58.664Z,17.73
2019-01-31T12:55:29.229Z,18.97
2019-01-31T12:57:59.854Z,17.30
2019-01-31T13:00:31.407Z,19.73
2019-01-31T13:03:02.006Z,19.27
2019-01-31T13:05:32.486Z,19.93
2019-01-31T13:08:03.037Z,19.70
2019-01-31T13:10:33.600Z,21.37
2019-01-31T13:13:04.690Z,21.17
2019-01-31T13:15:35.700Z,25.47
2019-01-31T13:18:07.189Z,25.10
2019-01-31T13:20:37.824Z,25.20
2019-01-31T13:23:08.764Z,24.87
2019-01-31T13:25:39.445Z,26.70
2019-01-31T13:28:10.095Z,25.97
2019-01-31T13:30:40.615Z,24.63
2019-01-31T13:33:12.772Z,24.90
2019-01-31T13:35:43.415Z,25.03
2019-01-31T13:38:14.010Z,26.93
2019-01-31T13:40:44.554Z,27.37
2019-01-31T13:43:15.297Z,26.43
2019-01-31T13:45:45.878Z,27.23
2019-01-31T13:48:18.037Z,27.47
2019-01-31T13:50:48.697Z,26.40
2019-01-31T13:53:19.408Z,28.60
2019-01-31T13:55:50.195Z,28.60
2019-01-31T13:58:20.870Z,29.43
2019-01-31T14:00:55.425Z,32.70
2019-01-31T14:03:27.896Z,27.07
2019-01-31T14:05:59.083Z,29.23
2019-01-31T14:08:31.702Z,25.53
2019-01-31T14:11:02.398Z,28.23
2019-01-31T14:13:33.078Z,29.30
2019-01-31T14:16:03.818Z,28.87
2019-01-31T14:18:34.451Z,29.23
2019-01-31T14:21:05.197Z,29.53
2019-01-31T14:23:35.937Z,30.63
2019-01-31T14:26:07.223Z,29.47
2019-01-31T14:28:37.897Z,29.70
2019-01-31T14:31:08.617Z,27.23
2019-01-31T14:33:39.305Z,27.67
2019-01-31T14:36:10.240Z,26.93
2019-01-31T14:38:40.850Z,27.37
2019-01-31T14:41:11.566Z,27.73
2019-01-31T14:43:42.095Z,28.57
2019-01-31T14:46:13.114Z,28.00
2019-01-31T14:48:44.384Z,30.53
2019-01-31T14:51:14.945Z,31.17
2019-01-31T14:53:45.725Z,29.33
2019-01-31T14:56:16.521Z,26.47
2019-01-31T14:58:47.045Z,26.73
2019-01-31T15:01:17.704Z,27.17
2019-01-31T15:03:48.289Z,28.00
2019-01-31T15:06:19.165Z,29.03
2019-01-31T15:08:50.126Z,33.80
2019-01-31T15:11:20.845Z,33.00
2019-01-31T15:13:51.566Z,32.37
2019-01-31T15:16:22.317Z,34.20
2019-01-31T15:18:53.116Z,34.17
2019-01-31T15:21:24.314Z,33.47
2019-01-31T15:23:55.535Z,34.93
2019-01-31T15:26:29.147Z,36.63
2019-01-31T15:28:59.797Z,37.20
2019-01-31T15:31:30.556Z,38.83
2019-01-31T15:34:01.387Z,39.27
2019-01-31T15:36:32.234Z,40.17
2019-01-31T15:39:03.001Z,39.83
2019-01-31T15:41:33.601Z,39.63
2019-01-31T15:44:04.254Z,40.77
2019-01-31T15:46:34.980Z,40.07
2019-01-31T15:49:05.632Z,43.40
2019-01-31T15:51:36.333Z,43.13
2019-01-31T15:54:07.921Z,47.00
2019-01-31T15:56:38.765Z,42.10
2019-01-31T15:59:09.597Z,40.00
2019-01-31T16:01:40.323Z,38.93
2019-01-31T16:04:11.322Z,36.63
2019-01-31T16:06:41.931Z,41.60
2019-01-31T16:09:12.583Z,37.27
2019-01-31T16:11:43.237Z,41.97
2019-01-31T16:14:13.974Z,51.03
2019-01-31T16:16:44.634Z,53.67
2019-01-31T16:19:15.404Z,51.60
2019-01-31T16:21:46.217Z,50.47
2019-01-31T16:24:17.028Z,48.67
2019-01-31T16:26:47.702Z,46.50
2019-01-31T16:29:18.393Z,48.13
2019-01-31T16:31:49.239Z,53.57
2019-01-31T16:34:20.248Z,51.43
2019-01-31T16:36:54.039Z,45.00
2019-01-31T16:39:27.422Z,42.70
2019-01-31T16:41:58.087Z,44.57
2019-01-31T16:44:31.688Z,43.43
2019-01-31T16:47:02.578Z,41.97
2019-01-31T16:49:34.285Z,43.50
2019-01-31T16:52:05.209Z,43.40
2019-01-31T16:54:37.427Z,40.67
2019-01-31T16:57:08.205Z,41.00
2019-01-31T16:59:38.837Z,39.77
2019-01-31T17:02:09.509Z,40.37
2019-01-31T17:04:42.829Z,42.77
2019-01-31T17:07:16.843Z,40.67
2019-01-31T17:09:47.837Z,41.87
2019-01-31T17:12:18.637Z,43.13
2019-01-31T17:14:51.677Z,44.77
2019-01-31T17:17:23.717Z,42.23
2019-01-31T17:19:54.482Z,42.03
2019-01-31T17:22:25.496Z,41.37
2019-01-31T17:24:56.263Z,42.43
2019-01-31T17:27:28.182Z,42.70
2019-01-31T17:30:00.205Z,43.63
2019-01-31T17:32:35.858Z,43.40
2019-01-31T17:35:09.438Z,45.87
2019-01-31T17:37:42.196Z,48.27
2019-01-31T17:40:21.672Z,48.87
2019-01-31T17:42:52.286Z,48.07
2019-01-31T17:45:30.378Z,51.77
2019-01-31T17:48:02.844Z,49.73
2019-01-31T17:50:36.351Z,50.63
2019-01-31T17:53:08.179Z,51.23
2019-01-31T17:55:41.570Z,54.30
2019-01-31T17:58:11.690Z,62.70
2019-01-31T18:00:51.877Z,56.70
2019-01-31T18:03:22.506Z,61.70
2019-01-31T18:05:58.093Z,71.27
2019-01-31T18:08:33.816Z,73.30
2019-01-31T18:11:04.491Z,60.67
2019-01-31T18:13:36.151Z,53.97
2019-01-31T18:16:11.843Z,48.63
2019-01-31T18:18:44.023Z,48.70
2019-01-31T18:21:20.633Z,46.67
2019-01-31T18:23:51.227Z,48.97
2019-01-31T18:26:21.899Z,57.73
2019-01-31T18:28:57.289Z,57.73
2019-01-31T18:31:28.292Z,50.07
2019-01-31T18:33:59.026Z,47.67
2019-01-31T18:36:32.777Z,49.57
2019-01-31T18:39:07.147Z,47.43
2019-01-31T18:41:41.532Z,46.53
2019-01-31T18:44:14.584Z,43.73
2019-01-31T18:46:49.980Z,40.50
2019-01-31T18:49:28.271Z,41.00
2019-01-31T18:52:00.209Z,40.87
2019-01-31T18:54:32.127Z,40.57
2019-01-31T18:57:07.513Z,41.77
2019-01-31T18:59:46.052Z,44.13
2019-01-31T19:02:20.598Z,42.43
2019-01-31T19:04:51.536Z,41.37
2019-01-31T19:07:27.066Z,43.90
2019-01-31T19:10:05.847Z,44.83
2019-01-31T19:12:41.193Z,45.67
2019-01-31T19:15:15.327Z,47.73
2019-01-31T19:17:46.553Z,48.20
2019-01-31T19:20:28.973Z,49.70
2019-01-31T19:23:06.581Z,48.30
2019-01-31T19:25:44.097Z,47.93
2019-01-31T19:28:29.907Z,49.87
2019-01-31T19:31:09.058Z,49.10
2019-01-31T19:33:42.586Z,49.80
2019-01-31T19:36:19.431Z,49.63
2019-01-31T19:38:56.255Z,51.17
2019-01-31T19:41:42.470Z,50.90
2019-01-31T19:44:15.252Z,49.30
2019-01-31T19:46:46.382Z,50.37
2019-01-31T19:49:17.112Z,48.77
2019-01-31T19:51:52.189Z,49.30
2019-01-31T19:54:25.357Z,51.63
2019-01-31T19:56:59.453Z,53.80
2019-01-31T19:59:30.292Z,53.87
2019-01-31T20:02:05.035Z,56.73
2019-01-31T20:04:35.871Z,57.50
2019-01-31T20:07:13.406Z,58.77
2019-01-31T20:09:45.333Z,58.77
2019-01-31T20:12:24.546Z,58.00
2019-01-31T20:15:05.185Z,59.40
2019-01-31T20:17:37.279Z,58.17
2019-01-31T20:20:15.134Z,55.30
2019-01-31T20:22:49.177Z,53.80
2019-01-31T20:25:24.136Z,48.67
2019-01-31T20:27:56.710Z,48.93
2019-01-31T20:30:34.930Z,48.10
2019-01-31T20:33:08.277Z,44.93
2019-01-31T20:35:41.527Z,43.87
2019-01-31T20:38:14.582Z,43.90
2019-01-31T20:40:52.306Z,45.73
2019-01-31T20:43:32.852Z,45.57
2019-01-31T20:46:13.846Z,44.50
2019-01-31T20:48:47.926Z,45.23
2019-01-31T20:51:21.880Z,45.63
2019-01-31T20:53:52.660Z,45.27
2019-01-31T20:56:23.321Z,48.33
2019-01-31T20:58:58.681Z,50.23
2019-01-31T21:01:30.751Z,47.50
2019-01-31T21:04:03.837Z,49.80
2019-01-31T21:06:41.594Z,50.20
2019-01-31T21:09:11.706Z,51.03
2019-01-31T21:11:44.539Z,53.23
2019-01-31T21:14:16.787Z,54.87
2019-01-31T21:16:53.896Z,53.60
2019-01-31T21:19:25.145Z,52.63
2019-01-31T21:22:00.411Z,57.23
2019-01-31T21:24:33.330Z,56.23
2019-01-31T21:27:04.374Z,56.10
2019-01-31T21:29:35.425Z,57.23
2019-01-31T21:32:08.473Z,58.83
2019-01-31T21:34:43.379Z,61.23
2019-01-31T21:37:18.620Z,56.60
2019-01-31T21:39:50.394Z,58.20
2019-01-31T21:42:21.109Z,59.23
2019-01-31T21:44:51.889Z,62.77
2019-01-31T21:47:22.587Z,60.37
2019-01-31T21:49:54.203Z,60.63
2019-01-31T21:52:28.069Z,57.27
2019-01-31T21:54:58.826Z,62.10
2019-01-31T21:57:29.371Z,61.43
2019-01-31T22:00:00.986Z,63.40
2019-01-31T22:02:31.558Z,66.17
2019-01-31T22:05:02.087Z,68.07
2019-01-31T22:07:33.022Z,68.30
2019-01-31T22:10:03.971Z,67.27
2019-01-31T22:12:34.657Z,69.63
2019-01-31T22:15:12.015Z,65.60
2019-01-31T22:17:42.606Z,67.57
2019-01-31T22:20:13.977Z,65.10
2019-01-31T22:22:44.534Z,63.80
2019-01-31T22:25:18.379Z,63.97
2019-01-31T22:27:49.052Z,60.13
2019-01-31T22:30:30.466Z,58.83
2019-01-31T22:33:01.308Z,61.07
2019-01-31T22:35:32.667Z,58.77
2019-01-31T22:38:03.298Z,54.07
2019-01-31T22:40:34.228Z,53.17
2019-01-31T22:43:05.111Z,50.13
2019-01-31T22:45:37.125Z,56.87
2019-01-31T22:48:08.997Z,49.93
2019-01-31T22:50:40.012Z,49.43
2019-01-31T22:53:10.614Z,54.57
2019-01-31T22:55:41.315Z,54.47
2019-01-31T22:58:11.971Z,50.27
2019-01-31T23:01:31.520Z,54.97
2019-01-31T23:04:02.786Z,52.73
2019-01-31T23:06:33.473Z,53.30
2019-01-31T23:09:06.381Z,52.97
2019-01-31T23:11:36.978Z,51.67
2019-01-31T23:14:07.948Z,56.03
2019-01-31T23:16:38.805Z,56.40
2019-01-31T23:19:09.544Z,50.70
2019-01-31T23:21:40.434Z,54.53
2019-01-31T23:24:11.056Z,52.83
2019-01-31T23:26:41.546Z,56.87
2019-01-31T23:29:12.310Z,57.50
2019-01-31T23:31:43.039Z,56.17
2019-01-31T23:34:13.561Z,54.83
2019-01-31T23:36:44.101Z,58.10
2019-01-31T23:39:14.827Z,58.03
2019-01-31T23:41:45.517Z,57.77
2019-01-31T23:44:16.293Z,57.50
2019-01-31T23:46:46.963Z,59.57
2019-01-31T23:49:17.542Z,59.13
2019-01-31T23:51:48.141Z,62.47
2019-01-31T23:54:18.772Z,57.80
2019-01-31T23:56:49.390Z,59.93
2019-01-31T23:59:20.097Z,59.17
